Aérodrome :
LOGIN :

S'inscrire | Disclaimer

   EN    FR    IT 

 










Légende :    VFR   VFR Marginal   IFR   IFR Intensif   IFR Très Intensif
Visi : 
Plafond : 
>= 8 km
>= 3000ft
5 à 8 km
1000 à 3000 ft
1500m à 5 km
500 à 1000 ft
800 à 1500m
200 à 500 ft
< 800m
< 200 ft
Symboles :   Orages  Brouillard  Fortes neiges  Fortes précipitations  Vent > 20 kt
SIGMETs :   Divers  Orages  Givrage  Turbulence  Onde Orograph.  Cendres Volcan.






- Altitude de l'aérodrome : 446 ft
- Code IATA : VNE


LFRV - Vannes-Meucon

DERNIER METAR :
  • 241430Z AUTO 05010KT 0450 FG VV/// 03/02 Q1019

METARs EXPIRÉS :
  • 241400Z AUTO 03009KT 0400 FG VV/// 03/02 Q1019
  • 241330Z AUTO 03007KT 0300 FG VV/// 02/02 Q1020
  • 241300Z AUTO 04008KT 0400 FG VV/// 02/02 Q1020
  • 241230Z AUTO 06010KT 0700 0650 FG VV/// 02/02 Q1020
  • 241200Z AUTO 05007KT 3400 BR OVC005 03/01 Q1020

TAF N/A



MET'MAP, la Météo Aéronautique d'un coup d'oeil ! - Copyright ORBIFLY Décembre 2007 - Disclaimer

ORBIFLY MET'MAP TEAM :

Programmation & Développement : Alexandra Zaïnal
Sur une idée originale de : Baudouin d'Aumeries
Assistance à la programmation : Marc-Olivier Méhu
Soutien technique & logistique : Manuel Goepfert

Contact : metmap@orbifly.com




SOURCES & CREDITS :

   NOAA